Time;durP1;ratioP1;P1;durP2;ratioP2;P2;SDS_P1;SDS_P2;PMS_P1;PMS_P2;Temp;Humidity;BMP_temperature;BMP_pressure;BME280_temperature;BME280_humidity;BME280_pressure;Samples;Min_cycle;Max_cycle;Signal;HPM_P1;HPM_P2
2022/12/14 00:00:37;;;;;;;22.30;16.60;;;1.00;1.00;;;;;;5117946;28;20179;-43
2022/12/14 00:03:03;;;;;;;20.77;16.93;;;1.00;1.00;;;;;;5083261;28;20176;-45
2022/12/14 00:05:28;;;;;;;20.93;16.00;;;1.00;1.00;;;;;;5117207;28;20487;-42
2022/12/14 00:07:54;;;;;;;19.13;14.67;;;1.00;1.00;;;;;;5118108;28;20179;-41
2022/12/14 00:10:20;;;;;;;21.03;15.73;;;1.00;1.00;;;;;;5118192;28;20183;-43
2022/12/14 00:12:45;;;;;;;19.87;15.47;;;1.00;1.00;;;;;;5117900;28;20254;-42
2022/12/14 00:15:11;;;;;;;17.50;15.40;;;1.00;1.00;;;;;;5117656;28;20559;-45
2022/12/14 00:17:36;;;;;;;21.30;16.67;;;1.00;1.00;;;;;;5117815;28;20199;-46
2022/12/14 00:20:02;;;;;;;21.10;17.20;;;1.00;1.00;;;;;;5117679;28;20450;-43
2022/12/14 00:22:28;;;;;;;20.50;16.73;;;1.00;1.00;;;;;;5117273;28;20254;-43
2022/12/14 00:24:54;;;;;;;22.93;16.33;;;1.00;1.00;;;;;;5117660;28;20771;-43
2022/12/14 00:27:19;;;;;;;22.73;17.83;;;1.00;1.00;;;;;;5117848;28;20554;-44
2022/12/14 00:29:45;;;;;;;20.23;16.40;;;0.90;1.00;;;;;;5117283;28;20221;-45
2022/12/14 00:32:10;;;;;;;22.03;15.97;;;0.90;1.00;;;;;;5116704;28;20168;-43
2022/12/14 00:34:36;;;;;;;22.70;16.67;;;0.90;1.00;;;;;;5115623;28;20212;-44
2022/12/14 00:37:02;;;;;;;20.17;14.93;;;0.80;21.70;;;;;;5116747;28;20237;-42
2022/12/14 00:39:28;;;;;;;23.70;15.30;;;0.80;39.40;;;;;;5117700;28;20183;-43
2022/12/14 00:41:53;;;;;;;22.00;15.70;;;0.80;55.30;;;;;;5120057;28;20512;-44
2022/12/14 00:44:20;;;;;;;19.93;15.77;;;0.80;59.70;;;;;;5121201;28;20508;-43
2022/12/14 00:46:45;;;;;;;23.33;17.20;;;0.70;99.90;;;;;;5122152;28;20210;-42
2022/12/14 00:49:11;;;;;;;23.73;16.80;;;0.70;99.90;;;;;;5121334;28;20417;-45
2022/12/14 00:51:37;;;;;;;17.03;14.93;;;0.70;99.90;;;;;;5121276;28;20630;-43
2022/12/14 00:54:03;;;;;;;20.77;16.30;;;0.70;99.90;;;;;;5121656;28;20241;-45
2022/12/14 00:56:29;;;;;;;21.13;16.50;;;0.70;99.90;;;;;;5120822;28;20716;-44
2022/12/14 00:58:55;;;;;;;19.87;15.97;;;0.80;99.90;;;;;;5103129;28;20421;-42
2022/12/14 01:01:21;;;;;;;19.87;15.73;;;0.70;99.90;;;;;;5121254;28;20613;-43
2022/12/14 01:03:47;;;;;;;22.67;17.83;;;0.80;99.90;;;;;;5120502;28;20229;-43
2022/12/14 01:06:15;;;;;;;22.00;15.20;;;0.70;99.90;;;;;;5119857;28;20697;-42
2022/12/14 01:08:41;;;;;;;20.13;15.70;;;0.80;99.90;;;;;;5119835;28;20815;-43
2022/12/14 01:11:08;;;;;;;18.93;14.60;;;0.80;99.90;;;;;;5119526;28;20421;-44
2022/12/14 01:13:35;;;;;;;19.60;16.10;;;0.80;99.90;;;;;;5119862;28;20223;-42
2022/12/14 01:16:03;;;;;;;22.50;16.43;;;0.80;99.90;;;;;;5120122;28;20432;-42
2022/12/14 01:18:32;;;;;;;20.10;16.30;;;0.80;99.90;;;;;;5120816;28;20504;-43
2022/12/14 01:21:09;;;;;;;21.20;17.00;;;0.80;99.90;;;;;;5121509;28;20816;-44
2022/12/14 01:23:36;;;;;;;22.83;17.13;;;0.80;99.90;;;;;;5120671;28;20433;-44
2022/12/14 01:26:02;;;;;;;21.17;16.03;;;0.70;99.90;;;;;;5120856;28;20429;-42
2022/12/14 01:28:27;;;;;;;25.50;17.60;;;0.70;99.90;;;;;;5121491;28;20431;-42
2022/12/14 01:30:53;;;;;;;20.07;15.60;;;0.70;99.90;;;;;;5102808;28;20222;-43
2022/12/14 01:33:18;;;;;;;23.00;17.50;;;0.70;99.90;;;;;;5120955;28;20210;-42
2022/12/14 01:35:44;;;;;;;21.73;16.37;;;0.70;1.00;;;;;;5120933;28;20172;-45
2022/12/14 01:38:10;;;;;;;20.47;16.83;;;0.70;1.00;;;;;;5102687;28;20184;-44
2022/12/14 01:40:36;;;;;;;22.90;17.20;;;0.70;1.00;;;;;;5120694;28;20218;-42
2022/12/14 01:43:01;;;;;;;20.03;16.03;;;0.70;1.00;;;;;;5120707;28;20175;-43
2022/12/14 01:45:30;;;;;;;22.53;17.27;;;0.70;1.00;;;;;;5120353;28;20429;-47
2022/12/14 01:47:58;;;;;;;20.73;16.10;;;0.80;1.00;;;;;;5120383;28;20665;-43
2022/12/14 01:50:53;;;;;;;22.97;16.10;;;0.70;1.00;;;;;;5101559;28;20456;-43
2022/12/14 01:53:20;;;;;;;18.67;15.90;;;0.80;1.00;;;;;;5080723;28;20468;-42
2022/12/14 01:55:49;;;;;;;19.10;15.47;;;0.80;1.00;;;;;;5102449;28;20430;-42
2022/12/14 01:58:18;;;;;;;22.40;16.67;;;0.80;1.00;;;;;;5085532;28;20430;-42
2022/12/14 02:00:44;;;;;;;24.93;17.40;;;0.80;1.00;;;;;;5120211;28;20834;-44
2022/12/14 02:03:17;;;;;;;24.40;16.57;;;0.80;1.00;;;;;;5119966;28;20410;-42
2022/12/14 02:05:46;;;;;;;21.00;17.33;;;0.80;1.00;;;;;;5102685;28;20253;-43
2022/12/14 02:08:12;;;;;;;18.93;15.73;;;0.80;1.00;;;;;;5120329;28;20470;-44
2022/12/14 02:10:38;;;;;;;23.20;16.43;;;0.80;1.00;;;;;;5101769;28;20425;-42
2022/12/14 02:13:28;;;;;;;24.23;16.63;;;0.80;1.00;;;;;;5119163;28;20477;-44
2022/12/14 02:15:54;;;;;;;25.00;17.83;;;0.80;1.00;;;;;;5090034;28;20184;-43
2022/12/14 02:18:21;;;;;;;19.07;15.93;;;0.90;1.00;;;;;;5119776;28;20826;-45
2022/12/14 02:20:53;;;;;;;22.73;17.13;;;0.90;1.00;;;;;;5119794;28;20172;-43
2022/12/14 02:23:56;;;;;;;20.73;16.20;;;0.90;1.00;;;;;;5118829;28;20850;-45
2022/12/14 02:26:51;;;;;;;20.73;16.67;;;0.90;1.00;;;;;;5119007;28;20802;-44
2022/12/14 02:29:34;;;;;;;22.70;17.17;;;0.90;1.00;;;;;;5119470;28;20428;-43
2022/12/14 02:32:11;;;;;;;21.30;17.17;;;0.90;1.00;;;;;;5102150;28;20718;-44
2022/12/14 02:35:07;;;;;;;20.43;17.40;;;0.80;1.00;;;;;;5119797;28;20950;-42
2022/12/14 02:37:52;;;;;;;22.57;17.23;;;0.80;1.00;;;;;;5120082;28;20414;-42
2022/12/14 02:40:42;;;;;;;21.43;17.97;;;0.80;1.00;;;;;;5119902;28;20459;-43
2022/12/14 02:43:35;;;;;;;21.80;16.60;;;0.80;1.00;;;;;;5119640;28;20443;-43
2022/12/14 02:46:21;;;;;;;21.63;17.30;;;0.80;1.00;;;;;;5120069;28;20401;-43
2022/12/14 02:48:56;;;;;;;24.13;17.70;;;0.70;1.00;;;;;;5119908;28;20433;-42
2022/12/14 02:51:54;;;;;;;24.13;17.17;;;0.80;1.00;;;;;;5102496;28;20409;-43
2022/12/14 02:54:27;;;;;;;19.03;16.47;;;0.80;1.00;;;;;;5097513;28;20894;-43
2022/12/14 02:56:58;;;;;;;22.87;18.20;;;0.80;1.00;;;;;;5101599;28;20410;-45
2022/12/14 02:59:24;;;;;;;22.73;17.50;;;0.80;1.00;;;;;;5119657;28;20428;-43
2022/12/14 03:01:51;;;;;;;19.53;16.40;;;0.80;1.00;;;;;;5101692;28;20928;-44
2022/12/14 03:04:16;;;;;;;20.10;17.00;;;0.90;1.00;;;;;;5100929;28;20759;-42
2022/12/14 03:07:01;;;;;;;21.67;16.50;;;0.90;1.00;;;;;;5100864;28;20445;-42
2022/12/14 03:09:29;;;;;;;20.53;17.40;;;0.90;1.00;;;;;;5119202;28;20287;-43
2022/12/14 03:12:00;;;;;;;19.77;16.97;;;0.90;1.00;;;;;;5100844;28;20512;-44
2022/12/14 03:14:28;;;;;;;21.33;17.30;;;1.00;1.00;;;;;;5118885;28;20484;-44
2022/12/14 03:16:58;;;;;;;22.93;17.87;;;0.90;1.00;;;;;;5118637;28;20397;-43
2022/12/14 03:19:54;;;;;;;22.63;17.37;;;0.90;1.00;;;;;;5100889;28;20429;-43
2022/12/14 03:22:44;;;;;;;25.23;18.67;;;0.90;1.00;;;;;;5098778;28;20913;-42
2022/12/14 03:25:40;;;;;;;22.13;17.50;;;0.90;1.00;;;;;;5086044;28;20851;-43
2022/12/14 03:28:12;;;;;;;24.47;18.67;;;0.90;1.00;;;;;;5118472;28;20831;-44
2022/12/14 03:30:40;;;;;;;23.40;18.83;;;0.90;1.00;;;;;;5100733;28;20424;-43
2022/12/14 03:33:10;;;;;;;23.67;17.63;;;0.90;1.00;;;;;;5100349;28;20469;-42
2022/12/14 03:35:47;;;;;;;25.33;18.37;;;0.90;1.00;;;;;;5118677;28;20876;-42
2022/12/14 03:38:35;;;;;;;23.57;18.53;;;0.90;1.00;;;;;;5099926;28;20428;-43
2022/12/14 03:41:11;;;;;;;28.13;19.67;;;0.90;1.00;;;;;;5100384;28;20424;-43
2022/12/14 03:44:03;;;;;;;24.00;18.30;;;0.90;1.00;;;;;;5118204;28;20424;-44
2022/12/14 03:46:47;;;;;;;22.83;18.07;;;0.90;1.00;;;;;;5105146;28;20498;-44
2022/12/14 03:49:23;;;;;;;23.10;17.63;;;0.90;1.00;;;;;;5118352;28;20873;-43
2022/12/14 03:52:10;;;;;;;23.37;16.93;;;0.90;1.00;;;;;;5083049;28;20421;-43
2022/12/14 03:55:02;;;;;;;25.30;19.33;;;0.80;1.00;;;;;;5118299;28;20720;-44
2022/12/14 03:57:53;;;;;;;21.80;17.90;;;0.90;1.00;;;;;;5117914;28;20422;-44
2022/12/14 04:00:23;;;;;;;21.27;17.37;;;0.90;1.00;;;;;;5099027;28;20433;-42
2022/12/14 04:03:26;;;;;;;22.40;17.57;;;0.90;1.00;;;;;;5088267;28;20426;-43
2022/12/14 04:05:57;;;;;;;26.57;18.17;;;0.80;1.00;;;;;;5117662;28;20406;-44
2022/12/14 04:09:06;;;;;;;23.53;18.67;;;0.80;1.00;;;;;;5098332;28;20434;-42
2022/12/14 04:20:04;;;;;;;24.90;17.87;;;0.80;1.00;;;;;;5090341;28;20418;-41
2022/12/14 04:22:33;;;;;;;25.30;19.40;;;0.80;1.00;;;;;;5097457;28;20731;-41
2022/12/14 04:27:49;;;;;;;25.90;19.93;;;0.80;5.90;;;;;;5081667;28;20514;-46
2022/12/14 04:30:15;;;;;;;23.97;18.67;;;0.80;5.90;;;;;;5079266;28;20406;-42
2022/12/14 04:32:48;;;;;;;22.60;18.20;;;0.80;24.60;;;;;;5079244;28;20438;-43
2022/12/14 04:35:33;;;;;;;23.43;18.27;;;0.80;39.10;;;;;;5077701;28;20426;-44
2022/12/14 04:38:09;;;;;;;25.20;18.10;;;0.80;31.60;;;;;;5077626;28;20422;-43
2022/12/14 04:40:42;;;;;;;26.80;19.00;;;0.80;25.10;;;;;;5078686;28;20410;-42
2022/12/14 04:43:12;;;;;;;21.80;17.87;;;0.80;46.60;;;;;;5078134;28;20442;-44
2022/12/14 04:46:05;;;;;;;23.40;18.50;;;0.80;76.30;;;;;;5078366;28;20442;-43
2022/12/14 04:48:58;;;;;;;22.13;16.97;;;0.80;99.90;;;;;;5082361;28;20492;-43
2022/12/14 04:51:48;;;;;;;22.83;18.40;;;0.90;99.90;;;;;;5097247;28;20399;-41
2022/12/14 04:54:37;;;;;;;23.23;19.33;;;0.90;90.30;;;;;;5078491;28;20484;-44
2022/12/14 04:57:09;;;;;;;23.90;19.53;;;0.90;46.10;;;;;;5076860;28;20441;-43
2022/12/14 04:59:36;;;;;;;23.83;18.20;;;0.90;35.80;;;;;;5056127;28;20502;-43
2022/12/14 05:02:23;;;;;;;24.70;19.60;;;0.90;66.80;;;;;;5071973;28;20672;-42
2022/12/14 05:05:02;;;;;;;25.70;19.70;;;0.90;90.10;;;;;;5075509;28;20487;-44
2022/12/14 05:07:42;;;;;;;25.20;20.10;;;0.90;99.90;;;;;;5075180;28;20530;-43
2022/12/14 05:10:13;;;;;;;25.67;19.00;;;1.00;99.90;;;;;;5095108;28;20414;-42
2022/12/14 05:12:44;;;;;;;26.60;20.87;;;0.90;99.90;;;;;;5090552;28;20942;-42
2022/12/14 05:15:13;;;;;;;23.27;19.67;;;1.00;99.90;;;;;;5115703;28;20422;-44
2022/12/14 05:17:40;;;;;;;24.33;20.03;;;1.00;99.90;;;;;;5114997;28;20476;-41
2022/12/14 05:20:16;;;;;;;23.83;19.30;;;1.00;99.90;;;;;;5114412;28;20398;-44
2022/12/14 05:22:43;;;;;;;23.77;19.17;;;1.00;99.90;;;;;;5115703;28;20464;-42
2022/12/14 05:25:09;;;;;;;24.03;18.03;;;1.00;99.90;;;;;;5115346;28;20406;-42
2022/12/14 05:27:35;;;;;;;24.70;19.43;;;1.10;99.90;;;;;;5117949;28;20433;-43
2022/12/14 05:30:00;;;;;;;25.87;18.90;;;1.10;99.90;;;;;;5099511;28;20429;-44
2022/12/14 05:32:28;;;;;;;25.37;19.83;;;1.10;99.90;;;;;;5116805;28;20196;-43
2022/12/14 05:34:53;;;;;;;25.40;20.40;;;1.10;99.90;;;;;;5116618;28;20191;-43
2022/12/14 05:37:19;;;;;;;23.20;18.90;;;1.10;99.90;;;;;;5117203;28;20563;-43
2022/12/14 05:39:45;;;;;;;23.90;19.53;;;1.10;99.90;;;;;;5117451;28;20182;-42
2022/12/14 05:42:10;;;;;;;26.20;20.77;;;1.10;99.90;;;;;;5117035;28;20214;-43
2022/12/14 05:44:36;;;;;;;27.87;19.70;;;1.20;99.90;;;;;;5117557;28;20231;-45
2022/12/14 05:47:01;;;;;;;26.77;19.70;;;1.20;99.90;;;;;;5116687;28;20216;-43
2022/12/14 05:49:27;;;;;;;27.70;21.43;;;1.20;99.90;;;;;;5119219;28;20183;-43
2022/12/14 05:51:53;;;;;;;26.10;20.63;;;1.20;99.90;;;;;;5118143;28;20183;-44
2022/12/14 05:54:19;;;;;;;24.83;20.40;;;1.20;1.00;;;;;;5098705;28;20865;-43
2022/12/14 05:56:45;;;;;;;26.30;21.67;;;1.20;1.00;;;;;;5115518;28;20496;-43
2022/12/14 05:59:14;;;;;;;30.40;21.27;;;1.20;1.00;;;;;;5118157;28;20225;-47
2022/12/14 06:01:40;;;;;;;32.73;21.10;;;1.20;1.00;;;;;;5111534;28;20392;-41
2022/12/14 06:04:06;;;;;;;28.50;22.03;;;1.20;1.00;;;;;;5112137;28;20429;-42
2022/12/14 06:06:32;;;;;;;28.17;22.47;;;1.30;1.00;;;;;;5114748;28;20420;-45
2022/12/14 06:08:58;;;;;;;26.47;21.13;;;1.30;1.00;;;;;;5113401;28;20183;-42
2022/12/14 06:11:24;;;;;;;26.07;21.20;;;1.30;1.00;;;;;;5112021;28;20405;-42
2022/12/14 06:13:50;;;;;;;31.90;22.20;;;1.30;1.00;;;;;;5109359;28;20297;-45
2022/12/14 06:16:22;;;;;;;26.60;19.83;;;1.30;1.00;;;;;;5112078;28;20589;-42
2022/12/14 06:18:50;;;;;;;26.67;20.20;;;1.30;1.00;;;;;;5108506;28;20851;-42
2022/12/14 06:21:17;;;;;;;26.07;21.10;;;1.30;1.00;;;;;;5110904;28;20487;-43
2022/12/14 06:23:43;;;;;;;26.43;21.70;;;1.40;1.00;;;;;;5111055;28;20433;-43
2022/12/14 06:26:09;;;;;;;26.47;21.27;;;1.30;1.00;;;;;;5094459;28;20417;-43
2022/12/14 06:28:36;;;;;;;27.30;20.07;;;1.40;99.90;;;;;;5114436;28;20495;-41
2022/12/14 06:31:02;;;;;;;24.17;20.57;;;1.40;99.90;;;;;;5114378;28;20731;-42
2022/12/14 06:33:28;;;;;;;24.47;20.20;;;1.40;99.90;;;;;;5111410;28;20473;-44
2022/12/14 06:35:54;;;;;;;24.53;20.03;;;1.40;99.90;;;;;;5113039;28;20858;-42
2022/12/14 06:38:20;;;;;;;25.40;20.73;;;1.40;99.90;;;;;;5113545;28;20449;-43
2022/12/14 06:40:46;;;;;;;25.60;21.10;;;1.40;99.90;;;;;;5115439;28;20421;-43
2022/12/14 06:43:12;;;;;;;25.47;22.20;;;1.40;1.00;;;;;;5114494;28;20716;-44
2022/12/14 06:45:38;;;;;;;25.70;20.63;;;1.40;1.00;;;;;;5114269;28;20210;-42
2022/12/14 06:48:04;;;;;;;29.03;21.33;;;1.50;1.00;;;;;;5112826;28;20453;-41
2022/12/14 06:50:30;;;;;;;24.40;20.17;;;1.50;1.00;;;;;;5112570;28;20418;-42
2022/12/14 06:52:56;;;;;;;24.20;19.23;;;1.50;1.00;;;;;;5093626;28;20519;-42
2022/12/14 06:55:22;;;;;;;27.73;20.93;;;1.40;1.00;;;;;;5112440;28;20444;-42
2022/12/14 06:57:52;;;;;;;28.20;21.60;;;1.50;1.00;;;;;;5113871;28;20517;-42
2022/12/14 07:00:19;;;;;;;27.90;21.23;;;1.40;1.00;;;;;;5094727;28;20486;-43
2022/12/14 07:02:45;;;;;;;26.80;22.03;;;1.40;1.00;;;;;;5112345;28;20453;-43
2022/12/14 07:05:11;;;;;;;28.53;21.93;;;1.40;1.00;;;;;;5115216;28;20453;-42
2022/12/14 07:07:37;;;;;;;26.03;21.40;;;1.40;1.00;;;;;;5114160;28;20391;-41
2022/12/14 07:10:03;;;;;;;28.07;20.90;;;1.40;1.00;;;;;;5113628;28;20433;-43
2022/12/14 07:12:28;;;;;;;27.93;21.03;;;1.40;1.00;;;;;;5098860;28;20517;-43
2022/12/14 07:14:54;;;;;;;26.90;21.43;;;1.40;1.00;;;;;;5114256;28;20519;-42
2022/12/14 07:17:20;;;;;;;25.30;22.07;;;1.50;1.00;;;;;;5116863;28;20194;-45
2022/12/14 07:19:46;;;;;;;19.20;11.60;;;1.50;1.00;;;;;;5115097;28;20419;-44
2022/12/14 07:22:12;;;;;;;28.70;20.87;;;2.00;1.00;;;;;;5113425;28;20413;-43
2022/12/14 07:24:38;;;;;;;29.57;23.90;;;2.50;1.00;;;;;;5113702;28;20429;-43
2022/12/14 07:27:04;;;;;;;28.03;22.93;;;2.60;99.90;;;;;;5111564;28;20742;-41
2022/12/14 07:29:30;;;;;;;25.03;22.17;;;2.60;99.90;;;;;;5111907;28;20475;-42
2022/12/14 07:31:57;;;;;;;27.47;22.60;;;2.40;99.90;;;;;;5112633;28;20203;-43
2022/12/14 07:34:22;;;;;;;27.43;21.30;;;2.30;99.90;;;;;;5112064;28;20472;-45
2022/12/14 07:36:52;;;;;;;29.67;22.73;;;2.20;1.00;;;;;;5113922;28;20826;-44
2022/12/14 07:39:19;;;;;;;26.90;21.43;;;2.10;99.90;;;;;;5113762;28;20317;-44
2022/12/14 07:41:46;;;;;;;30.67;22.40;;;2.00;99.90;;;;;;5114246;28;20405;-43
2022/12/14 07:44:12;;;;;;;30.20;21.93;;;1.90;1.00;;;;;;5113411;28;20425;-43
2022/12/14 07:46:38;;;;;;;28.80;22.07;;;1.90;99.90;;;;;;5112843;28;20410;-45
2022/12/14 07:49:05;;;;;;;27.10;22.73;;;1.80;99.90;;;;;;5112615;27;20452;-43
2022/12/14 07:51:34;;;;;;;28.13;23.20;;;1.80;2.80;;;;;;5114612;28;20766;-44
2022/12/14 07:54:01;;;;;;;29.30;22.60;;;1.80;1.00;;;;;;5113743;28;20893;-42
2022/12/14 07:56:29;;;;;;;28.23;23.30;;;1.70;1.00;;;;;;5113776;27;20410;-42
2022/12/14 07:58:56;;;;;;;32.57;24.50;;;1.70;1.00;;;;;;5111948;28;20821;-44
2022/12/14 08:01:25;;;;;;;29.33;23.43;;;1.70;1.00;;;;;;5111732;28;20413;-44
2022/12/14 08:03:53;;;;;;;29.10;22.63;;;1.70;1.00;;;;;;5112691;28;20464;-43
2022/12/14 08:06:20;;;;;;;32.00;23.60;;;1.80;1.00;;;;;;5113654;28;20451;-44
2022/12/14 08:08:45;;;;;;;30.87;25.23;;;1.80;1.00;;;;;;5113454;28;20433;-45
2022/12/14 08:11:11;;;;;;;28.57;22.13;;;1.80;1.00;;;;;;5113203;28;20409;-43
2022/12/14 08:13:37;;;;;;;26.20;21.70;;;1.80;1.00;;;;;;5113739;28;20284;-44
2022/12/14 08:16:11;;;;;;;29.33;23.07;;;1.80;1.00;;;;;;5112035;28;20413;-43
2022/12/14 08:18:37;;;;;;;29.50;22.20;;;1.80;1.00;;;;;;5110389;28;20425;-43
2022/12/14 08:21:04;;;;;;;31.00;22.50;;;1.90;1.00;;;;;;5113005;28;20409;-43
2022/12/14 08:23:30;;;;;;;29.70;23.90;;;1.90;1.00;;;;;;5115269;28;20183;-44
2022/12/14 08:25:57;;;;;;;27.00;22.67;;;1.90;1.00;;;;;;5112460;28;20562;-42
2022/12/14 08:28:23;;;;;;;30.10;22.90;;;2.00;99.90;;;;;;5091590;28;20424;-45
2022/12/14 08:30:49;;;;;;;26.10;23.03;;;2.00;99.90;;;;;;5095138;28;20413;-43
2022/12/14 08:33:15;;;;;;;29.33;23.63;;;2.00;99.90;;;;;;5093449;28;20616;-44
2022/12/14 08:35:44;;;;;;;28.33;22.77;;;2.10;99.90;;;;;;5110569;28;20774;-44
2022/12/14 08:38:10;;;;;;;31.60;24.47;;;2.10;99.90;;;;;;5112354;28;20750;-45
2022/12/14 08:40:36;;;;;;;31.93;23.80;;;2.10;99.90;;;;;;5111084;28;20421;-40
2022/12/14 08:43:02;;;;;;;30.07;23.80;;;2.20;99.90;;;;;;5111114;28;20444;-42
2022/12/14 08:45:27;;;;;;;29.13;22.63;;;2.20;99.90;;;;;;5110585;28;21014;-43
2022/12/14 08:47:56;;;;;;;30.73;23.57;;;2.20;99.90;;;;;;5112441;28;20441;-43
2022/12/14 08:50:22;;;;;;;29.80;23.10;;;2.30;99.90;;;;;;5096690;28;20452;-43
2022/12/14 08:52:48;;;;;;;31.50;23.07;;;2.30;99.90;;;;;;5113870;28;21012;-42
2022/12/14 08:55:15;;;;;;;30.47;24.77;;;2.40;99.90;;;;;;5114287;28;20208;-45
2022/12/14 08:57:42;;;;;;;29.70;24.33;;;2.40;99.90;;;;;;5114390;28;20251;-44
2022/12/14 09:00:08;;;;;;;27.27;21.97;;;2.50;99.90;;;;;;5113924;28;20455;-42
2022/12/14 09:02:35;;;;;;;30.97;24.37;;;2.60;99.90;;;;;;5115688;28;20880;-44
2022/12/14 09:05:02;;;;;;;29.00;24.23;;;2.70;99.90;;;;;;5118091;28;20428;-44
2022/12/14 09:07:28;;;;;;;27.53;23.20;;;2.80;45.40;;;;;;5118116;28;20485;-46
2022/12/14 09:09:54;;;;;;;28.63;23.23;;;2.90;11.40;;;;;;5117403;28;20688;-43
2022/12/14 09:12:19;;;;;;;28.77;22.93;;;3.00;1.00;;;;;;5117477;28;20759;-46
2022/12/14 09:14:48;;;;;;;29.30;24.67;;;3.00;1.00;;;;;;5119464;28;20222;-44
2022/12/14 09:17:14;;;;;;;34.33;25.03;;;3.10;1.00;;;;;;5118152;28;20229;-44
2022/12/14 09:19:40;;;;;;;31.77;25.17;;;3.10;1.00;;;;;;5100272;28;20425;-46
2022/12/14 09:22:06;;;;;;;28.30;23.93;;;3.20;1.00;;;;;;5117890;28;20682;-47
2022/12/14 09:24:31;;;;;;;29.33;24.90;;;3.20;1.00;;;;;;5118325;28;20199;-41
2022/12/14 09:27:02;;;;;;;31.03;24.33;;;3.20;1.00;;;;;;5118885;28;20175;-44
2022/12/14 09:29:28;;;;;;;32.57;24.73;;;3.10;17.50;;;;;;5117930;28;20566;-43
2022/12/14 09:31:55;;;;;;;29.10;24.90;;;3.10;68.00;;;;;;5116971;28;20448;-43
2022/12/14 09:34:24;;;;;;;28.73;22.17;;;3.10;99.90;;;;;;5117321;28;20890;-43
2022/12/14 09:36:51;;;;;;;32.00;23.03;;;3.10;99.90;;;;;;5097853;28;20483;-45
2022/12/14 09:39:16;;;;;;;29.77;22.27;;;3.00;99.90;;;;;;5116811;28;20425;-42
2022/12/14 09:42:04;;;;;;;29.17;23.50;;;3.00;1.00;;;;;;5115642;28;20435;-42
2022/12/14 09:44:32;;;;;;;29.67;26.37;;;3.00;1.00;;;;;;5115182;28;20172;-46
2022/12/14 09:47:16;;;;;;;29.47;24.00;;;3.00;1.00;;;;;;5117770;28;20776;-43
2022/12/14 09:49:55;;;;;;;32.23;24.60;;;2.90;1.00;;;;;;5098085;28;20418;-43
2022/12/14 09:52:32;;;;;;;28.97;24.30;;;2.90;55.60;;;;;;5115711;28;20729;-42
2022/12/14 09:54:58;;;;;;;34.87;25.30;;;2.80;99.90;;;;;;5117602;28;20547;-43
2022/12/14 09:57:36;;;;;;;30.63;24.90;;;2.80;99.90;;;;;;5100199;28;20520;-43
2022/12/14 10:00:08;;;;;;;29.20;23.43;;;2.80;99.90;;;;;;5101043;28;20409;-43
2022/12/14 10:02:42;;;;;;;29.17;24.80;;;2.70;99.90;;;;;;5101795;28;20440;-43
2022/12/14 10:05:31;;;;;;;28.40;23.63;;;2.70;1.00;;;;;;5098420;28;20425;-43
2022/12/14 10:08:07;;;;;;;27.67;22.93;;;2.70;1.00;;;;;;5098421;28;20409;-43
2022/12/14 10:10:54;;;;;;;28.87;24.00;;;2.70;1.00;;;;;;5115767;28;20416;-44
2022/12/14 10:13:41;;;;;;;26.13;21.37;;;2.80;1.00;;;;;;5113882;28;20481;-43
2022/12/14 10:16:16;;;;;;;25.37;22.43;;;2.80;1.00;;;;;;5117449;28;20426;-42
2022/12/14 10:18:44;;;;;;;29.17;23.87;;;2.90;1.00;;;;;;5115620;28;20413;-44
2022/12/14 10:21:15;;;;;;;25.80;22.30;;;3.00;1.00;;;;;;5118402;28;20455;-45
2022/12/14 10:23:52;;;;;;;28.20;22.23;;;3.00;1.00;;;;;;5098194;28;20600;-45
2022/12/14 10:26:19;;;;;;;27.77;22.67;;;3.10;1.00;;;;;;5097894;28;20440;-43
2022/12/14 10:29:05;;;;;;;28.10;23.13;;;3.20;99.90;;;;;;5085391;28;20702;-44
2022/12/14 10:31:39;;;;;;;31.77;24.53;;;3.20;99.90;;;;;;5080224;28;20844;-43
2022/12/14 10:34:23;;;;;;;28.27;23.53;;;3.30;99.90;;;;;;5077163;28;20496;-43
2022/12/14 10:37:02;;;;;;;27.63;23.30;;;3.30;99.90;;;;;;5095662;28;20430;-43
2022/12/14 10:39:59;;;;;;;27.77;24.23;;;3.40;99.90;;;;;;5075304;28;20422;-44
2022/12/14 10:42:41;;;;;;;26.67;23.77;;;3.50;99.90;;;;;;5073063;28;20530;-44
2022/12/14 10:45:31;;;;;;;26.97;23.67;;;3.70;99.90;;;;;;5093058;28;20406;-42
2022/12/14 10:48:10;;;;;;;29.50;23.40;;;3.80;99.90;;;;;;5091464;28;20492;-43
2022/12/14 10:50:56;;;;;;;28.87;24.50;;;3.90;49.60;;;;;;5091056;28;20434;-42
2022/12/14 10:53:31;;;;;;;24.47;21.80;;;3.90;27.90;;;;;;5091203;28;20454;-43
2022/12/14 10:56:00;;;;;;;25.97;23.17;;;4.00;1.00;;;;;;5073650;28;20521;-44
2022/12/14 10:58:26;;;;;;;7.57;4.03;;;4.00;1.00;;;;;;5092486;28;20484;-48
2022/12/14 11:00:54;;;;;;;17.90;11.10;;;4.60;99.90;;;;;;5092654;28;20643;-48
2022/12/14 11:03:20;;;;;;;16.83;11.90;;;7.40;1.00;;;;;;5095488;28;20180;-44
2022/12/14 11:06:20;;;;;;;24.43;18.77;;;7.80;1.00;;;;;;5076915;28;20883;-47
2022/12/14 11:08:48;;;;;;;35.63;26.57;;;7.70;1.00;;;;;;5094761;28;20200;-45
2022/12/14 11:11:18;;;;;;;32.13;27.10;;;7.30;1.00;;;;;;5077779;28;20914;-44
2022/12/14 11:14:07;;;;;;;31.57;28.13;;;6.90;1.00;;;;;;5088550;28;20485;-44
2022/12/14 11:16:35;;;;;;;32.97;29.30;;;6.40;1.00;;;;;;5092160;28;20501;-45
2022/12/14 11:19:02;;;;;;;36.80;31.50;;;6.00;1.00;;;;;;5075833;28;20418;-45
2022/12/14 11:21:36;;;;;;;36.10;30.60;;;5.70;1.00;;;;;;5092865;28;20510;-45
2022/12/14 11:24:04;;;;;;;35.27;30.30;;;5.40;99.90;;;;;;5103553;28;20509;-46
2022/12/14 11:26:38;;;;;;;34.33;30.23;;;5.10;99.90;;;;;;5115940;28;20434;-45
2022/12/14 11:29:06;;;;;;;32.10;27.53;;;4.90;99.90;;;;;;5114537;28;20412;-47
2022/12/14 11:31:58;;;;;;;32.20;26.67;;;4.70;90.00;;;;;;5115803;28;20852;-45
2022/12/14 11:34:29;;;;;;;33.43;28.73;;;4.50;1.00;;;;;;5113950;28;20479;-45
2022/12/14 11:37:14;;;;;;;30.70;25.33;;;4.40;99.90;;;;;;5116095;28;20436;-44
2022/12/14 11:39:43;;;;;;;36.07;27.37;;;4.40;99.90;;;;;;5111871;28;20762;-47
2022/12/14 11:42:18;;;;;;;33.17;27.37;;;4.30;57.00;;;;;;5112766;28;20441;-45
2022/12/14 11:44:45;;;;;;;29.10;25.63;;;4.20;1.00;;;;;;5111977;28;20478;-43
2022/12/14 11:47:15;;;;;;;30.53;26.27;;;4.20;1.00;;;;;;5116026;28;20578;-43
2022/12/14 11:49:40;;;;;;;30.20;25.33;;;4.10;99.90;;;;;;5112446;28;20480;-45
2022/12/14 11:52:24;;;;;;;31.33;26.30;;;4.10;99.90;;;;;;5113447;28;20477;-46
2022/12/14 11:54:55;;;;;;;31.07;24.60;;;4.00;99.90;;;;;;5114034;28;20260;-44
2022/12/14 11:57:29;;;;;;;30.53;27.07;;;4.00;99.90;;;;;;5112445;28;20528;-45
2022/12/14 12:00:06;;;;;;;28.90;25.70;;;4.10;94.20;;;;;;5114653;28;20425;-44
2022/12/14 12:02:56;;;;;;;32.40;26.43;;;4.20;14.30;;;;;;5115025;28;20426;-45
2022/12/14 12:05:22;;;;;;;31.63;25.60;;;4.30;1.00;;;;;;5098956;28;20456;-45
2022/12/14 12:07:48;;;;;;;11.20;6.97;;;4.40;1.00;;;;;;5113091;28;20421;-45
2022/12/14 12:10:15;;;;;;;19.20;13.50;;;5.90;1.00;;;;;;5113676;28;20409;-47
2022/12/14 12:12:52;;;;;;;19.90;13.27;;;7.40;1.00;;;;;;5113003;28;20232;-49
2022/12/14 12:15:22;;;;;;;17.23;12.47;;;8.70;1.00;;;;;;5114746;28;20509;-44
2022/12/14 12:17:53;;;;;;;16.97;13.00;;;9.40;1.00;;;;;;5113842;28;20711;-44
2022/12/14 12:20:27;;;;;;;22.90;19.20;;;9.80;1.00;;;;;;5111817;28;20406;-44
2022/12/14 12:22:57;;;;;;;25.60;22.90;;;9.60;1.00;;;;;;5114783;28;20419;-43
2022/12/14 12:25:23;;;;;;;27.77;24.30;;;9.20;99.90;;;;;;5113243;28;20420;-43
2022/12/14 12:28:03;;;;;;;29.37;26.30;;;8.80;1.00;;;;;;5094290;28;20832;-46
2022/12/14 12:30:33;;;;;;;27.00;24.20;;;8.30;99.90;;;;;;5112134;28;20447;-43
2022/12/14 12:33:08;;;;;;;27.30;24.40;;;7.80;1.00;;;;;;5110298;28;20457;-44
2022/12/14 12:35:52;;;;;;;30.40;27.30;;;7.30;99.90;;;;;;5093465;28;20436;-46
2022/12/14 12:38:37;;;;;;;30.37;27.23;;;7.00;1.00;;;;;;5113802;28;20657;-45
2022/12/14 12:41:12;;;;;;;31.47;28.17;;;6.70;99.90;;;;;;5112822;28;20852;-45
2022/12/14 12:43:42;;;;;;;29.43;26.30;;;6.40;1.00;;;;;;5114137;28;20420;-46
2022/12/14 12:46:18;;;;;;;31.77;28.10;;;6.20;1.00;;;;;;5116250;28;20433;-47
2022/12/14 12:48:51;;;;;;;31.40;26.80;;;6.10;99.90;;;;;;5096613;28;20414;-44
2022/12/14 12:52:00;;;;;;;29.10;25.47;;;6.00;99.90;;;;;;5096172;28;20473;-45
2022/12/14 12:54:30;;;;;;;29.93;26.33;;;5.80;3.50;;;;;;5093314;28;20713;-46
2022/12/14 12:56:57;;;;;;;28.50;25.50;;;5.70;1.00;;;;;;5094140;28;20419;-45
2022/12/14 12:59:37;;;;;;;30.30;27.00;;;5.60;1.00;;;;;;5094646;28;20427;-43
2022/12/14 13:02:28;;;;;;;27.80;24.67;;;5.50;1.00;;;;;;5094419;28;20493;-44
2022/12/14 13:04:54;;;;;;;30.33;27.13;;;5.40;1.00;;;;;;5095210;28;20507;-43
2022/12/14 13:07:22;;;;;;;28.77;25.67;;;5.30;99.90;;;;;;5105909;28;20545;-47
2022/12/14 13:09:57;;;;;;;40.07;34.30;;;5.20;99.90;;;;;;5116309;28;20414;-43
2022/12/14 13:12:38;;;;;;;41.70;34.10;;;5.10;99.90;;;;;;5116676;28;20984;-43
2022/12/14 13:15:36;;;;;;;39.43;33.27;;;4.90;99.90;;;;;;5097324;28;20460;-43
2022/12/14 13:18:04;;;;;;;34.60;30.83;;;4.70;1.00;;;;;;5102032;28;20436;-43